createdAt,value
2022-09-03T00:00:32.711Z,42.70
2022-09-03T00:03:04.632Z,42.80
2022-09-03T00:05:55.096Z,42.80
2022-09-03T00:08:50.111Z,43.10
2022-09-03T00:11:22.019Z,43.40
2022-09-03T00:13:59.183Z,43.20
2022-09-03T00:16:31.072Z,43.30
2022-09-03T00:19:02.518Z,43.40
2022-09-03T00:21:38.665Z,43.60
2022-09-03T00:24:14.067Z,43.60
2022-09-03T00:26:45.287Z,44.60
2022-09-03T00:29:16.819Z,43.80
2022-09-03T00:31:48.269Z,43.80
2022-09-03T00:34:39.371Z,43.80
2022-09-03T00:37:07.421Z,44.10
2022-09-03T00:39:41.992Z,44.00
2022-09-03T00:42:31.839Z,44.10
2022-09-03T00:45:18.592Z,44.20
2022-09-03T00:48:28.109Z,44.40
2022-09-03T00:51:07.451Z,44.60
2022-09-03T00:53:59.079Z,44.50
2022-09-03T00:56:25.908Z,44.80
2022-09-03T00:58:58.098Z,44.60
2022-09-03T01:01:52.801Z,44.70
2022-09-03T01:04:48.535Z,44.80
2022-09-03T01:07:54.179Z,44.90
2022-09-03T01:10:46.028Z,45.00
2022-09-03T01:13:19.815Z,45.20
2022-09-03T01:15:57.288Z,45.30
2022-09-03T01:18:39.888Z,45.40
2022-09-03T01:21:21.540Z,45.40
2022-09-03T01:24:07.369Z,45.50
2022-09-03T01:27:00.171Z,45.70
2022-09-03T01:29:39.907Z,45.90
2022-09-03T01:32:16.763Z,45.90
2022-09-03T01:34:56.290Z,46.00
2022-09-03T01:37:41.250Z,46.10
2022-09-03T01:40:10.807Z,46.20
2022-09-03T01:43:01.054Z,46.30
2022-09-03T01:46:00.530Z,46.50
2022-09-03T01:48:39.381Z,46.70
2022-09-03T01:51:14.204Z,46.70
2022-09-03T01:54:20.820Z,46.80
2022-09-03T01:57:36.598Z,46.90
2022-09-03T02:00:09.473Z,47.10
2022-09-03T02:02:36.261Z,47.10
2022-09-03T02:05:14.777Z,47.20
2022-09-03T02:07:43.059Z,47.30
2022-09-03T02:10:14.188Z,47.40
2022-09-03T02:12:44.075Z,47.30
2022-09-03T02:15:14.786Z,47.20
2022-09-03T02:17:44.010Z,47.30
2022-09-03T02:20:16.433Z,47.30
2022-09-03T02:22:43.528Z,47.30
2022-09-03T02:25:11.139Z,47.40
2022-09-03T02:27:41.387Z,47.50
2022-09-03T02:30:09.000Z,47.50
2022-09-03T02:32:35.705Z,47.60
2022-09-03T02:35:02.527Z,47.60
2022-09-03T02:37:29.139Z,47.70
2022-09-03T02:39:55.760Z,47.70
2022-09-03T02:42:22.504Z,47.70
2022-09-03T02:44:57.504Z,47.70
2022-09-03T02:47:25.423Z,47.90
2022-09-03T02:49:51.999Z,47.90
2022-09-03T02:52:18.695Z,47.90
2022-09-03T02:54:45.872Z,48.00
2022-09-03T02:57:15.734Z,48.20
2022-09-03T02:59:44.516Z,48.30
2022-09-03T03:02:13.020Z,48.40
2022-09-03T03:04:40.024Z,48.50
2022-09-03T03:07:07.996Z,48.60
2022-09-03T03:09:34.595Z,48.70
2022-09-03T03:12:02.233Z,48.80
2022-09-03T03:14:28.844Z,48.90
2022-09-03T03:16:55.475Z,49.10
2022-09-03T03:19:24.333Z,49.20
2022-09-03T03:22:02.553Z,49.30
2022-09-03T03:58:20.991Z,49.00
2022-09-03T04:21:02.335Z,49.20
2022-09-03T04:24:08.194Z,49.10
2022-09-03T04:59:40.860Z,50.30
2022-09-03T05:03:32.627Z,50.20
2022-09-03T05:06:28.765Z,50.30
2022-09-03T05:46:21.167Z,51.20
2022-09-03T05:59:56.471Z,51.50
2022-09-03T06:06:23.604Z,51.80
2022-09-03T06:12:47.242Z,51.90
2022-09-03T06:30:52.206Z,52.40
2022-09-03T06:33:45.436Z,52.40
2022-09-03T06:43:38.513Z,52.50
2022-09-03T06:49:59.780Z,52.30
2022-09-03T06:52:42.517Z,52.00
2022-09-03T06:58:31.988Z,51.80
2022-09-03T07:01:23.646Z,52.10
2022-09-03T07:04:01.432Z,52.10
2022-09-03T07:06:30.693Z,52.10
2022-09-03T07:08:57.900Z,51.90
2022-09-03T07:11:27.574Z,51.70
2022-09-03T07:13:55.923Z,51.80
2022-09-03T07:16:32.725Z,51.60
2022-09-03T07:19:14.418Z,51.70
2022-09-03T07:21:48.162Z,51.60
2022-09-03T07:27:13.040Z,51.20
2022-09-03T07:29:41.791Z,50.90
2022-09-03T07:32:08.712Z,50.50
2022-09-03T07:34:35.709Z,50.40
2022-09-03T07:37:05.648Z,50.30
2022-09-03T07:39:33.594Z,50.10
2022-09-03T07:42:00.826Z,49.90
2022-09-03T07:44:33.400Z,50.70
2022-09-03T07:47:09.479Z,49.40
2022-09-03T07:49:41.600Z,49.40
2022-09-03T07:52:22.373Z,49.30
2022-09-03T08:10:26.284Z,47.30
2022-09-03T08:15:56.226Z,47.10
2022-09-03T08:35:55.072Z,45.90
2022-09-03T08:42:01.940Z,45.80
2022-09-03T08:48:26.053Z,44.90
2022-09-03T08:51:51.782Z,44.20
2022-09-03T08:54:41.244Z,43.80
2022-09-03T08:57:23.733Z,43.80
2022-09-03T09:00:01.539Z,43.50
2022-09-03T09:02:53.566Z,43.20
2022-09-03T09:05:52.351Z,42.60
2022-09-03T09:09:37.056Z,41.90
2022-09-03T09:12:34.087Z,42.00
2022-09-03T09:18:46.342Z,41.80
2022-09-03T09:21:27.832Z,41.50
2022-09-03T09:24:06.235Z,41.00
2022-09-03T09:26:33.579Z,40.60
2022-09-03T09:29:10.129Z,40.30
2022-09-03T09:31:39.832Z,39.90
2022-09-03T09:34:08.578Z,39.60
2022-09-03T09:36:56.462Z,39.10
2022-09-03T09:39:23.418Z,37.80
2022-09-03T09:42:05.302Z,37.90
2022-09-03T09:44:32.050Z,37.20
2022-09-03T09:47:21.424Z,36.50
2022-09-03T09:49:59.912Z,35.90
2022-09-03T09:52:29.442Z,35.30
2022-09-03T09:55:14.431Z,34.70
2022-09-03T09:57:41.010Z,34.70
2022-09-03T10:00:13.248Z,34.30
2022-09-03T10:02:48.379Z,34.30
2022-09-03T10:05:40.512Z,33.60
2022-09-03T10:08:20.876Z,33.30
2022-09-03T10:10:51.048Z,32.30
2022-09-03T10:13:42.595Z,32.50
2022-09-03T10:16:28.305Z,32.30
2022-09-03T10:19:09.003Z,32.20
2022-09-03T10:21:59.981Z,31.80
2022-09-03T10:24:51.652Z,32.00
2022-09-03T10:27:18.729Z,31.70
2022-09-03T10:29:45.675Z,32.00
2022-09-03T10:32:37.962Z,32.20
2022-09-03T10:35:19.182Z,32.00
2022-09-03T10:38:03.111Z,31.80
2022-09-03T10:40:38.463Z,31.80
2022-09-03T10:43:07.780Z,31.60
2022-09-03T10:46:06.248Z,31.60
2022-09-03T10:48:51.528Z,31.40
2022-09-03T10:51:26.618Z,31.50
2022-09-03T10:54:12.636Z,31.20
2022-09-03T10:56:45.061Z,32.10
2022-09-03T10:59:29.276Z,31.30
2022-09-03T11:02:18.508Z,31.30
2022-09-03T11:05:02.908Z,31.70
2022-09-03T11:07:37.643Z,31.30
2022-09-03T11:10:31.267Z,30.90
2022-09-03T11:13:00.986Z,31.00
2022-09-03T11:15:35.694Z,31.30
2022-09-03T11:18:33.727Z,31.10
2022-09-03T11:21:07.649Z,31.30
2022-09-03T11:23:40.871Z,31.10
2022-09-03T11:26:12.835Z,30.80
2022-09-03T11:28:55.529Z,30.90
2022-09-03T11:31:34.172Z,30.70
2022-09-03T11:34:08.252Z,30.60
2022-09-03T11:36:38.682Z,30.60
2022-09-03T11:39:19.744Z,30.80
2022-09-03T11:42:07.198Z,30.70
2022-09-03T11:44:47.998Z,30.50
2022-09-03T11:47:39.984Z,30.60
2022-09-03T11:50:22.620Z,31.00
2022-09-03T11:52:51.799Z,31.00
2022-09-03T11:55:37.568Z,30.70
2022-09-03T11:58:18.800Z,30.80
2022-09-03T12:00:46.017Z,30.80
2022-09-03T12:03:17.847Z,30.80
2022-09-03T12:06:24.590Z,31.10
2022-09-03T12:09:09.147Z,31.10
2022-09-03T12:11:56.895Z,30.40
2022-09-03T12:14:29.696Z,30.70
2022-09-03T12:17:30.640Z,30.20
2022-09-03T12:19:58.798Z,30.10
2022-09-03T12:22:28.796Z,30.00
2022-09-03T12:24:56.127Z,30.00
2022-09-03T12:27:25.128Z,30.00
2022-09-03T12:29:57.906Z,29.80
2022-09-03T12:32:24.827Z,29.90
2022-09-03T12:34:51.408Z,30.00
2022-09-03T12:40:23.211Z,29.60
2022-09-03T12:42:50.481Z,29.30
2022-09-03T12:45:26.056Z,29.80
2022-09-03T12:47:53.515Z,29.70
2022-09-03T12:50:24.852Z,29.60
2022-09-03T12:52:59.802Z,29.30
2022-09-03T12:55:43.541Z,29.00
2022-09-03T12:58:13.570Z,28.70
2022-09-03T13:00:46.943Z,28.60
2022-09-03T13:03:28.689Z,28.30
2022-09-03T13:05:59.441Z,28.10
2022-09-03T13:08:51.026Z,28.50
2022-09-03T13:11:23.043Z,28.50
2022-09-03T13:14:02.549Z,28.30
2022-09-03T13:16:38.194Z,27.90
2022-09-03T13:19:30.892Z,27.50
2022-09-03T13:22:11.946Z,27.50
2022-09-03T13:25:17.147Z,27.30
2022-09-03T13:28:05.194Z,27.30
2022-09-03T13:30:55.429Z,27.10
2022-09-03T13:33:29.318Z,27.40
2022-09-03T13:36:21.444Z,27.40
2022-09-03T13:39:06.174Z,26.70
2022-09-03T13:41:50.893Z,27.20
2022-09-03T13:44:20.553Z,26.50
2022-09-03T13:46:47.127Z,26.70
2022-09-03T13:50:02.678Z,26.90
2022-09-03T13:52:45.071Z,27.30
2022-09-03T13:55:33.530Z,26.60
2022-09-03T13:58:08.307Z,26.60
2022-09-03T14:00:46.016Z,26.20
2022-09-03T14:03:30.463Z,26.10
2022-09-03T14:06:36.415Z,26.30
2022-09-03T14:09:18.728Z,26.30
2022-09-03T14:11:49.018Z,26.20
2022-09-03T14:14:47.479Z,26.20
2022-09-03T14:17:23.768Z,25.80
2022-09-03T14:20:10.551Z,25.70
2022-09-03T14:22:43.591Z,26.10
2022-09-03T14:25:21.096Z,25.90
2022-09-03T14:27:48.233Z,25.60
2022-09-03T14:30:39.248Z,25.60
2022-09-03T14:33:08.716Z,25.60
2022-09-03T14:35:44.108Z,26.00
2022-09-03T14:38:25.632Z,26.10
2022-09-03T14:41:04.294Z,25.70
2022-09-03T14:43:52.650Z,25.80
2022-09-03T14:46:33.405Z,26.00
2022-09-03T14:49:18.898Z,25.80
2022-09-03T14:51:54.363Z,25.80
2022-09-03T14:54:44.717Z,25.80
2022-09-03T14:57:36.112Z,25.50
2022-09-03T15:00:17.386Z,25.80
2022-09-03T15:02:53.282Z,25.90
2022-09-03T15:05:34.871Z,25.80
2022-09-03T15:08:15.687Z,25.70
2022-09-03T15:10:56.804Z,25.30
2022-09-03T15:13:58.863Z,25.70
2022-09-03T15:16:36.277Z,25.80
2022-09-03T15:19:34.643Z,25.80
2022-09-03T15:22:12.980Z,25.80
2022-09-03T15:25:03.169Z,25.80
2022-09-03T15:27:43.559Z,26.10
2022-09-03T15:30:13.170Z,25.80
2022-09-03T15:32:54.785Z,25.90
2022-09-03T15:36:05.988Z,26.00
2022-09-03T15:38:41.639Z,26.70
2022-09-03T15:41:28.304Z,26.50
2022-09-03T15:43:59.753Z,26.60
2022-09-03T15:46:40.327Z,26.50
2022-09-03T15:49:33.732Z,26.40
2022-09-03T15:52:09.681Z,26.60
2022-09-03T15:54:43.973Z,26.50
2022-09-03T15:57:22.557Z,26.50
2022-09-03T15:59:58.596Z,26.70
2022-09-03T16:02:39.948Z,27.10
2022-09-03T16:05:35.287Z,27.20
2022-09-03T16:08:19.994Z,27.40
2022-09-03T16:11:32.603Z,27.30
2022-09-03T16:14:23.257Z,27.60
2022-09-03T16:17:13.733Z,27.70
2022-09-03T16:20:01.807Z,27.90
2022-09-03T16:22:29.862Z,28.30
2022-09-03T16:25:02.272Z,28.30
2022-09-03T16:27:46.032Z,28.20
2022-09-03T16:30:22.107Z,28.30
2022-09-03T16:33:28.597Z,28.50
2022-09-03T16:36:10.530Z,28.30
2022-09-03T16:38:54.027Z,28.40
2022-09-03T16:41:34.819Z,28.80
2022-09-03T16:44:11.811Z,29.10
2022-09-03T16:46:55.172Z,29.10
2022-09-03T16:49:38.332Z,28.90
2022-09-03T16:52:14.850Z,29.10
2022-09-03T16:55:00.008Z,29.30
2022-09-03T16:57:47.425Z,29.40
2022-09-03T17:00:21.009Z,29.50
2022-09-03T17:03:11.430Z,29.30
2022-09-03T17:06:03.295Z,29.70
2022-09-03T17:08:49.384Z,29.90
2022-09-03T17:11:42.183Z,30.00
2022-09-03T17:14:39.759Z,30.40
2022-09-03T17:17:28.216Z,30.60
2022-09-03T17:20:07.504Z,30.50
2022-09-03T17:22:40.421Z,30.80
2022-09-03T17:25:35.444Z,30.90
2022-09-03T17:28:46.068Z,31.00
2022-09-03T17:31:22.190Z,31.50
2022-09-03T17:34:19.970Z,31.40
2022-09-03T17:37:02.456Z,31.90
2022-09-03T17:39:59.429Z,32.20
2022-09-03T17:43:04.714Z,32.20
2022-09-03T17:46:15.690Z,32.40
2022-09-03T17:48:51.266Z,32.70
2022-09-03T17:51:35.058Z,33.10
2022-09-03T17:54:10.408Z,33.20
2022-09-03T17:56:46.941Z,33.30
2022-09-03T17:59:32.802Z,33.50
2022-09-03T18:02:15.957Z,33.80
2022-09-03T18:04:54.796Z,34.40
2022-09-03T18:07:36.298Z,34.50
2022-09-03T18:10:30.651Z,34.50
2022-09-03T18:13:13.620Z,34.40
2022-09-03T18:15:55.369Z,34.30
2022-09-03T18:18:28.526Z,34.50
2022-09-03T18:21:27.545Z,35.20
2022-09-03T18:24:37.644Z,35.30
2022-09-03T18:27:33.270Z,35.60
2022-09-03T18:30:32.342Z,35.90
2022-09-03T18:33:17.748Z,36.10
2022-09-03T18:36:04.213Z,36.10
2022-09-03T18:38:54.651Z,36.20
2022-09-03T18:42:09.369Z,36.20
2022-09-03T18:45:21.487Z,36.40
2022-09-03T18:48:20.830Z,37.30
2022-09-03T18:51:24.629Z,37.90
2022-09-03T18:54:20.171Z,38.10
2022-09-03T18:57:07.103Z,38.40
2022-09-03T19:00:30.255Z,38.40
2022-09-03T19:03:41.352Z,38.70
2022-09-03T19:06:54.974Z,38.90
2022-09-03T19:09:55.536Z,38.70
2022-09-03T19:12:59.289Z,39.10
2022-09-03T19:15:59.859Z,39.20
2022-09-03T19:18:50.834Z,39.00
2022-09-03T19:21:40.785Z,39.20
2022-09-03T19:24:26.231Z,39.20
2022-09-03T19:27:59.853Z,39.20
2022-09-03T19:30:53.084Z,39.50
2022-09-03T19:33:54.243Z,39.40
2022-09-03T19:36:54.797Z,39.50
2022-09-03T19:40:13.307Z,39.60
2022-09-03T19:43:17.570Z,39.80
2022-09-03T19:46:56.920Z,40.00
2022-09-03T19:49:56.933Z,40.30
2022-09-03T19:52:58.735Z,40.60
2022-09-03T19:55:46.098Z,40.80
2022-09-03T19:58:43.744Z,41.90
2022-09-03T20:01:30.204Z,41.10
2022-09-03T20:04:19.056Z,41.20
2022-09-03T20:07:05.502Z,41.40
2022-09-03T20:09:56.188Z,41.50
2022-09-03T20:12:25.136Z,41.70
2022-09-03T20:14:51.747Z,41.60
2022-09-03T20:17:33.530Z,41.60
2022-09-03T20:20:22.295Z,41.70
2022-09-03T20:23:23.520Z,43.00
2022-09-03T20:26:28.771Z,42.00
2022-09-03T20:29:13.189Z,42.20
2022-09-03T20:32:00.912Z,42.30
2022-09-03T20:34:45.621Z,42.50
2022-09-03T20:37:50.647Z,42.70
2022-09-03T20:40:34.032Z,42.80
2022-09-03T20:43:18.690Z,42.90
2022-09-03T20:45:56.642Z,43.20
2022-09-03T20:48:50.735Z,43.30
2022-09-03T20:51:53.107Z,43.40
2022-09-03T20:54:33.630Z,43.20
2022-09-03T20:57:14.439Z,43.10
2022-09-03T20:59:47.214Z,43.00
2022-09-03T21:02:53.326Z,43.20
2022-09-03T21:20:21.964Z,44.20
2022-09-03T21:23:16.169Z,44.40
2022-09-03T21:26:13.830Z,44.40
2022-09-03T21:29:08.940Z,44.80
2022-09-03T21:31:40.299Z,44.90
2022-09-03T21:34:24.893Z,45.00
2022-09-03T21:36:51.732Z,45.10
2022-09-03T21:39:29.853Z,45.10
2022-09-03T21:42:09.680Z,45.10
2022-09-03T21:44:49.110Z,45.20
2022-09-03T21:47:21.265Z,45.20
2022-09-03T21:50:16.327Z,45.20
2022-09-03T21:52:55.748Z,45.40
2022-09-03T21:55:47.070Z,45.50
2022-09-03T21:58:40.322Z,45.70
2022-09-03T22:01:26.301Z,45.70
2022-09-03T22:03:53.596Z,45.90
2022-09-03T22:06:31.103Z,45.90
2022-09-03T22:09:22.280Z,46.10
2022-09-03T22:11:59.915Z,46.10
2022-09-03T22:14:30.912Z,46.20
2022-09-03T22:17:08.777Z,46.30
2022-09-03T22:19:37.527Z,46.50
2022-09-03T22:22:16.961Z,46.50
2022-09-03T22:24:49.696Z,46.70
2022-09-03T22:27:43.583Z,46.80
2022-09-03T22:30:14.595Z,46.90
2022-09-03T22:33:11.250Z,47.20
2022-09-03T22:35:58.054Z,47.40
2022-09-03T22:38:52.432Z,47.50
2022-09-03T22:41:59.762Z,47.70
2022-09-03T22:44:35.327Z,47.80
2022-09-03T22:47:14.014Z,48.10
2022-09-03T22:49:46.350Z,48.20
2022-09-03T22:52:32.273Z,48.50
2022-09-03T22:55:15.495Z,48.60
2022-09-03T22:58:01.948Z,48.90
2022-09-03T23:00:30.915Z,49.10
2022-09-03T23:03:07.356Z,49.20
2022-09-03T23:05:52.043Z,49.40
2022-09-03T23:08:25.391Z,49.60
2022-09-03T23:11:25.104Z,49.60
2022-09-03T23:14:04.692Z,49.70
2022-09-03T23:17:05.978Z,49.80
2022-09-03T23:19:48.005Z,50.10
2022-09-03T23:22:29.953Z,50.20
2022-09-03T23:25:19.462Z,50.40
2022-09-03T23:28:14.468Z,50.60
2022-09-03T23:30:41.603Z,50.70
2022-09-03T23:33:10.949Z,51.70
2022-09-03T23:35:48.799Z,50.80
2022-09-03T23:38:40.591Z,51.10
2022-09-03T23:41:14.921Z,51.30
2022-09-03T23:44:01.503Z,51.50
2022-09-03T23:47:02.130Z,51.50
2022-09-03T23:49:42.870Z,51.80
2022-09-03T23:52:46.921Z,52.00
2022-09-03T23:55:37.210Z,52.30
2022-09-03T23:58:20.187Z,52.30
